sensor_id;sensor_type;location;lat;lon;timestamp;P1;P2;P0
62981;PMS5003;49075;53.988;27.678;2022-12-18T00:00:05;30.6;30.2;20
62981;PMS5003;49075;53.988;27.678;2022-12-18T00:04:50;30.6;29.8;20.2
62981;PMS5003;49075;53.988;27.678;2022-12-18T00:09:28;29.6;29;21.4
62981;PMS5003;49075;53.988;27.678;2022-12-18T00:15:14;37;34.8;22.5
62981;PMS5003;49075;53.988;27.678;2022-12-18T00:19:36;37;34.8;22.5
62981;PMS5003;49075;53.988;27.678;2022-12-18T00:24:28;30.6;29.6;20.2
62981;PMS5003;49075;53.988;27.678;2022-12-18T00:30:02;33.4;32.4;21.6
62981;PMS5003;49075;53.988;27.678;2022-12-18T00:34:36;29.8;28.8;20.2
62981;PMS5003;49075;53.988;27.678;2022-12-18T00:40:10;25.6;25.6;18.6
62981;PMS5003;49075;53.988;27.678;2022-12-18T00:45:02;25.6;25.6;18.6
62981;PMS5003;49075;53.988;27.678;2022-12-18T00:49:48;31;31;19.6
62981;PMS5003;49075;53.988;27.678;2022-12-18T00:54:36;25;24.4;18.2
62981;PMS5003;49075;53.988;27.678;2022-12-18T00:59:28;31.8;29.8;20
62981;PMS5003;49075;53.988;27.678;2022-12-18T01:04:56;30.6;30.2;19.4
62981;PMS5003;49075;53.988;27.678;2022-12-18T01:10:13;31.4;29.8;20.4
62981;PMS5003;49075;53.988;27.678;2022-12-18T01:14:28;31.4;29.8;20.4
62981;PMS5003;49075;53.988;27.678;2022-12-18T01:19:31;32;30.8;22
62981;PMS5003;49075;53.988;27.678;2022-12-18T01:24:40;34.8;33.2;23.6
62981;PMS5003;49075;53.988;27.678;2022-12-18T01:30:16;32;31.4;20.8
62981;PMS5003;49075;53.988;27.678;2022-12-18T01:35:08;32;31.4;20.8
62981;PMS5003;49075;53.988;27.678;2022-12-18T01:39:52;35.4;35;24.4
62981;PMS5003;49075;53.988;27.678;2022-12-18T01:45:44;36;35;24.4
62981;PMS5003;49075;53.988;27.678;2022-12-18T01:49:50;35.2;33.8;22.8
62981;PMS5003;49075;53.988;27.678;2022-12-18T01:55:14;41.2;39;25.8
62981;PMS5003;49075;53.988;27.678;2022-12-18T01:59:38;41.2;39;25.8
62981;PMS5003;49075;53.988;27.678;2022-12-18T02:04:28;31.6;30.2;19.8
62981;PMS5003;49075;53.988;27.678;2022-12-18T02:10:07;28.4;28.2;19.4
62981;PMS5003;49075;53.988;27.678;2022-12-18T02:14:31;33.4;32.2;21.4
62981;PMS5003;49075;53.988;27.678;2022-12-18T02:20:16;27;26.2;18.4
62981;PMS5003;49075;53.988;27.678;2022-12-18T02:25:20;26;25.8;19.2
62981;PMS5003;49075;53.988;27.678;2022-12-18T02:29:56;26;25.8;19.2
62981;PMS5003;49075;53.988;27.678;2022-12-18T02:34:55;26.4;25;16.8
62981;PMS5003;49075;53.988;27.678;2022-12-18T02:39:41;27.6;27.2;20.6
62981;PMS5003;49075;53.988;27.678;2022-12-18T02:45:16;32.6;31.6;21.4
62981;PMS5003;49075;53.988;27.678;2022-12-18T02:50:07;32.6;31.6;21.4
62981;PMS5003;49075;53.988;27.678;2022-12-18T02:54:56;27.6;27;18.2
62981;PMS5003;49075;53.988;27.678;2022-12-18T03:00:08;23.6;22;16.6
62981;PMS5003;49075;53.988;27.678;2022-12-18T03:04:42;28.2;27.4;19.4
62981;PMS5003;49075;53.988;27.678;2022-12-18T03:10:15;24.6;24;17.2
62981;PMS5003;49075;53.988;27.678;2022-12-18T03:15:07;24.6;24;17.2
62981;PMS5003;49075;53.988;27.678;2022-12-18T03:20:05;24.5;23.8;17
62981;PMS5003;49075;53.988;27.678;2022-12-18T03:24:52;27;25.8;17.6
62981;PMS5003;49075;53.988;27.678;2022-12-18T03:29:42;30.6;29.8;20.6
62981;PMS5003;49075;53.988;27.678;2022-12-18T03:35:00;25.6;25;18.8
62981;PMS5003;49075;53.988;27.678;2022-12-18T03:39:28;26.2;24.8;18.8
62981;PMS5003;49075;53.988;27.678;2022-12-18T03:44:53;28;27.4;20.2
62981;PMS5003;49075;53.988;27.678;2022-12-18T03:50:08;24.6;23.4;16.4
62981;PMS5003;49075;53.988;27.678;2022-12-18T03:54:40;22.4;21.8;16.6
62981;PMS5003;49075;53.988;27.678;2022-12-18T04:00:17;22.2;21.6;15.2
62981;PMS5003;49075;53.988;27.678;2022-12-18T04:05:07;22.2;21.6;15.2
62981;PMS5003;49075;53.988;27.678;2022-12-18T04:10:08;23.6;23;16.4
62981;PMS5003;49075;53.988;27.678;2022-12-18T04:14:52;25.6;25;17.6
62981;PMS5003;49075;53.988;27.678;2022-12-18T04:19:42;23;22.8;14
62981;PMS5003;49075;53.988;27.678;2022-12-18T04:25:18;25.4;25;17.4
62981;PMS5003;49075;53.988;27.678;2022-12-18T04:29:28;25.4;25;17.4
62981;PMS5003;49075;53.988;27.678;2022-12-18T04:34:28;22;20.6;16.2
62981;PMS5003;49075;53.988;27.678;2022-12-18T04:39:28;26;24;17.4
62981;PMS5003;49075;53.988;27.678;2022-12-18T04:44:50;21.8;21.6;17.4
62981;PMS5003;49075;53.988;27.678;2022-12-18T04:50:16;27.6;26.8;20.8
62981;PMS5003;49075;53.988;27.678;2022-12-18T04:55:08;27.6;26.8;20.8
62981;PMS5003;49075;53.988;27.678;2022-12-18T05:00:07;19.6;19.4;14.2
62981;PMS5003;49075;53.988;27.678;2022-12-18T05:04:40;22.6;22.4;17.4
62981;PMS5003;49075;53.988;27.678;2022-12-18T05:10:02;20.4;19.8;15.2
62981;PMS5003;49075;53.988;27.678;2022-12-18T05:15:18;25.2;24.6;18.2
62981;PMS5003;49075;53.988;27.678;2022-12-18T05:19:40;25.2;24.6;18.2
62981;PMS5003;49075;53.988;27.678;2022-12-18T05:24:54;21;20.5;16.3
62981;PMS5003;49075;53.988;27.678;2022-12-18T05:29:50;15.6;15.2;10.6
62981;PMS5003;49075;53.988;27.678;2022-12-18T05:34:28;22;21.4;16
62981;PMS5003;49075;53.988;27.678;2022-12-18T05:40:07;22.6;21.8;16.2
62981;PMS5003;49075;53.988;27.678;2022-12-18T05:45:06;24;23.8;18
62981;PMS5003;49075;53.988;27.678;2022-12-18T05:50:07;22.6;22.4;17.4
62981;PMS5003;49075;53.988;27.678;2022-12-18T05:54:52;21;21;15.6
62981;PMS5003;49075;53.988;27.678;2022-12-18T05:59:52;22.8;22;15.6
62981;PMS5003;49075;53.988;27.678;2022-12-18T06:05:18;20.2;19.6;15.4
62981;PMS5003;49075;53.988;27.678;2022-12-18T06:09:28;20.2;19.6;15.4
62981;PMS5003;49075;53.988;27.678;2022-12-18T06:14:52;23.8;23.2;16.6
62981;PMS5003;49075;53.988;27.678;2022-12-18T06:19:50;21.4;20.2;15.4
62981;PMS5003;49075;53.988;27.678;2022-12-18T06:24:29;20.8;19.3;15.5
62981;PMS5003;49075;53.988;27.678;2022-12-18T06:30:09;18.2;17.8;12.6
62981;PMS5003;49075;53.988;27.678;2022-12-18T06:34:30;25;24.4;17.2
62981;PMS5003;49075;53.988;27.678;2022-12-18T06:39:50;21.4;21;16
62981;PMS5003;49075;53.988;27.678;2022-12-18T06:44:28;23.6;22.8;16
62981;PMS5003;49075;53.988;27.678;2022-12-18T06:49:28;23.4;23;17
62981;PMS5003;49075;53.988;27.678;2022-12-18T06:55:18;20.4;20.4;15.4
62981;PMS5003;49075;53.988;27.678;2022-12-18T06:59:40;20.4;20.4;15.4
62981;PMS5003;49075;53.988;27.678;2022-12-18T07:04:54;23.4;22.2;17
62981;PMS5003;49075;53.988;27.678;2022-12-18T07:09:42;22.6;21;15.2
62981;PMS5003;49075;53.988;27.678;2022-12-18T07:14:28;19.6;19.2;14.4
62981;PMS5003;49075;53.988;27.678;2022-12-18T07:20:14;21;20.3;14.3
62981;PMS5003;49075;53.988;27.678;2022-12-18T07:24:32;21;20.3;14.3
62981;PMS5003;49075;53.988;27.678;2022-12-18T07:30:09;18.6;17.8;13.4
62981;PMS5003;49075;53.988;27.678;2022-12-18T07:34:28;25.8;25;19.4
62981;PMS5003;49075;53.988;27.678;2022-12-18T07:39:28;23.8;23.4;17.4
62981;PMS5003;49075;53.988;27.678;2022-12-18T07:45:16;30;28.4;20.4
62981;PMS5003;49075;53.988;27.678;2022-12-18T07:49:40;30;28.4;20.4
62981;PMS5003;49075;53.988;27.678;2022-12-18T07:54:56;25.6;25;18.6
62981;PMS5003;49075;53.988;27.678;2022-12-18T07:59:50;20.8;19.8;14.4
62981;PMS5003;49075;53.988;27.678;2022-12-18T08:04:50;31.8;30;20.2
62981;PMS5003;49075;53.988;27.678;2022-12-18T08:10:18;26.4;25.6;19
62981;PMS5003;49075;53.988;27.678;2022-12-18T08:15:09;26.4;25.6;19
62981;PMS5003;49075;53.988;27.678;2022-12-18T08:20:09;25.8;23.6;17.2
62981;PMS5003;49075;53.988;27.678;2022-12-18T08:24:40;26.5;25.3;17
62981;PMS5003;49075;53.988;27.678;2022-12-18T08:29:50;24.6;24.2;17.4
62981;PMS5003;49075;53.988;27.678;2022-12-18T08:35:18;26.8;26;19.2
62981;PMS5003;49075;53.988;27.678;2022-12-18T08:40:18;25.4;23.2;16.6
62981;PMS5003;49075;53.988;27.678;2022-12-18T08:44:56;25.4;23.2;16.6
62981;PMS5003;49075;53.988;27.678;2022-12-18T08:50:16;38;36.4;24.4
62981;PMS5003;49075;53.988;27.678;2022-12-18T08:55:16;27.4;27;18
62981;PMS5003;49075;53.988;27.678;2022-12-18T09:00:07;27.4;27;18
62981;PMS5003;49075;53.988;27.678;2022-12-18T09:05:06;26;25.2;16.6
62981;PMS5003;49075;53.988;27.678;2022-12-18T09:09:52;30;28.4;19.6
62981;PMS5003;49075;53.988;27.678;2022-12-18T09:14:28;27.4;25.4;17.8
62981;PMS5003;49075;53.988;27.678;2022-12-18T09:20:07;27.2;26.4;18.8
62981;PMS5003;49075;53.988;27.678;2022-12-18T09:25:16;26.6;25.8;17.8
62981;PMS5003;49075;53.988;27.678;2022-12-18T09:29:54;26.6;25.8;17.8
62981;PMS5003;49075;53.988;27.678;2022-12-18T09:34:56;24.8;24.4;16.8
62981;PMS5003;49075;53.988;27.678;2022-12-18T09:40:18;27.4;26;18.2
62981;PMS5003;49075;53.988;27.678;2022-12-18T09:45:14;23.2;22.4;16
62981;PMS5003;49075;53.988;27.678;2022-12-18T09:50:05;23.2;22.4;16
62981;PMS5003;49075;53.988;27.678;2022-12-18T09:55:18;24.2;23.4;16.8
62981;PMS5003;49075;53.988;27.678;2022-12-18T09:59:50;24.2;23.4;16.8
62981;PMS5003;49075;53.988;27.678;2022-12-18T10:04:52;25.6;24.8;17
62981;PMS5003;49075;53.988;27.678;2022-12-18T10:10:04;22.2;21.2;15.4
62981;PMS5003;49075;53.988;27.678;2022-12-18T10:15:19;26.6;25;17.6
62981;PMS5003;49075;53.988;27.678;2022-12-18T10:19:39;26.6;25;17.6
62981;PMS5003;49075;53.988;27.678;2022-12-18T10:24:53;24.4;23.8;17.4
62981;PMS5003;49075;53.988;27.678;2022-12-18T10:30:17;24.4;23.2;16.2
62981;PMS5003;49075;53.988;27.678;2022-12-18T10:35:18;26.6;26.2;18
62981;PMS5003;49075;53.988;27.678;2022-12-18T10:40:09;26.6;26.2;18
62981;PMS5003;49075;53.988;27.678;2022-12-18T10:45:09;24.6;24.6;17.2
62981;PMS5003;49075;53.988;27.678;2022-12-18T10:49:52;26.2;25.2;17
62981;PMS5003;49075;53.988;27.678;2022-12-18T10:55:16;22.6;22.4;14.2
62981;PMS5003;49075;53.988;27.678;2022-12-18T11:00:23;22.6;22.4;14.2
62981;PMS5003;49075;53.988;27.678;2022-12-18T11:05:23;26.4;24.6;17.4
62981;PMS5003;49075;53.988;27.678;2022-12-18T11:10:17;23.2;23;16.6
62981;PMS5003;49075;53.988;27.678;2022-12-18T11:14:53;23.2;23;16.6
62981;PMS5003;49075;53.988;27.678;2022-12-18T11:20:20;27.8;26.2;18
62981;PMS5003;49075;53.988;27.678;2022-12-18T11:25:18;25.5;25.3;18.3
62981;PMS5003;49075;53.988;27.678;2022-12-18T11:30:08;25.5;25.3;18.3
62981;PMS5003;49075;53.988;27.678;2022-12-18T11:35:10;27;25.6;18.2
62981;PMS5003;49075;53.988;27.678;2022-12-18T11:39:51;28.2;26.6;18.8
62981;PMS5003;49075;53.988;27.678;2022-12-18T11:44:29;29.2;28;19
62981;PMS5003;49075;53.988;27.678;2022-12-18T11:50:10;23.2;22.8;14.8
62981;PMS5003;49075;53.988;27.678;2022-12-18T11:55:20;28.8;28;18.8
62981;PMS5003;49075;53.988;27.678;2022-12-18T11:59:46;28.8;28;18.8
62981;PMS5003;49075;53.988;27.678;2022-12-18T12:04:59;32.8;31.6;22
62981;PMS5003;49075;53.988;27.678;2022-12-18T12:10:23;28;26.6;19.8
62981;PMS5003;49075;53.988;27.678;2022-12-18T12:15:22;25.2;24;18
62981;PMS5003;49075;53.988;27.678;2022-12-18T12:20:08;25.2;24;18
62981;PMS5003;49075;53.988;27.678;2022-12-18T12:25:13;29.4;28.4;20.4
62981;PMS5003;49075;53.988;27.678;2022-12-18T12:29:55;25.8;24.5;17.5
62981;PMS5003;49075;53.988;27.678;2022-12-18T12:34:31;27;25.6;16.8
62981;PMS5003;49075;53.988;27.678;2022-12-18T12:40:07;23.8;23.6;16.8
62981;PMS5003;49075;53.988;27.678;2022-12-18T12:45:18;25.8;25;17
62981;PMS5003;49075;53.988;27.678;2022-12-18T12:49:30;25.8;25;17
62981;PMS5003;49075;53.988;27.678;2022-12-18T12:54:57;27;26.2;18.2
62981;PMS5003;49075;53.988;27.678;2022-12-18T13:00:19;27.4;25.8;18.4
62981;PMS5003;49075;53.988;27.678;2022-12-18T13:05:06;27.4;25.8;18.4
62981;PMS5003;49075;53.988;27.678;2022-12-18T13:09:30;26;25.2;17.6
62981;PMS5003;49075;53.988;27.678;2022-12-18T13:15:19;27.4;25.8;19.8
62981;PMS5003;49075;53.988;27.678;2022-12-18T13:19:39;26;25.8;19.8
62981;PMS5003;49075;53.988;27.678;2022-12-18T13:25:27;29.3;28.3;19.8
62981;PMS5003;49075;53.988;27.678;2022-12-18T13:30:47;26.6;23.8;18.4
62981;PMS5003;49075;53.988;27.678;2022-12-18T13:35:51;26.8;25.8;19
62981;PMS5003;49075;53.988;27.678;2022-12-18T13:39:41;26.8;25.8;19
62981;PMS5003;49075;53.988;27.678;2022-12-18T13:44:55;30;27;19.4
62981;PMS5003;49075;53.988;27.678;2022-12-18T13:50:09;25;24.2;18
62981;PMS5003;49075;53.988;27.678;2022-12-18T13:55:04;25.2;25.2;17.8
62981;PMS5003;49075;53.988;27.678;2022-12-18T13:59:41;26.8;25.2;19.2
62981;PMS5003;49075;53.988;27.678;2022-12-18T14:05:21;26.4;25.4;20.4
62981;PMS5003;49075;53.988;27.678;2022-12-18T14:09:39;26.4;25.4;20.4
62981;PMS5003;49075;53.988;27.678;2022-12-18T14:14:41;27.2;26.6;18.8
62981;PMS5003;49075;53.988;27.678;2022-12-18T14:20:19;25.4;23.2;16.8
62981;PMS5003;49075;53.988;27.678;2022-12-18T14:25:19;81.8;76.5;48.5
62981;PMS5003;49075;53.988;27.678;2022-12-18T14:29:29;81.8;76.5;48.5
62981;PMS5003;49075;53.988;27.678;2022-12-18T14:34:55;58.8;54.8;34.4
62981;PMS5003;49075;53.988;27.678;2022-12-18T14:40:05;25.2;24.4;17
62981;PMS5003;49075;53.988;27.678;2022-12-18T14:45:32;23.8;23.2;16
62981;PMS5003;49075;53.988;27.678;2022-12-18T14:49:29;23.8;23.2;16
62981;PMS5003;49075;53.988;27.678;2022-12-18T14:55:17;26.4;25.6;17.6
62981;PMS5003;49075;53.988;27.678;2022-12-18T14:59:41;26.4;25.6;17.6
62981;PMS5003;49075;53.988;27.678;2022-12-18T15:04:30;27;26.8;20.6
62981;PMS5003;49075;53.988;27.678;2022-12-18T15:10:15;24.2;23.6;18.2
62981;PMS5003;49075;53.988;27.678;2022-12-18T15:15:43;24.2;23.6;18.2
62981;PMS5003;49075;53.988;27.678;2022-12-18T15:19:32;26.8;25.8;19
62981;PMS5003;49075;53.988;27.678;2022-12-18T15:24:55;31.6;29.6;22
62981;PMS5003;49075;53.988;27.678;2022-12-18T15:30:16;34.8;33.5;24.3
62981;PMS5003;49075;53.988;27.678;2022-12-18T15:35:07;32.2;30.8;22.2
62981;PMS5003;49075;53.988;27.678;2022-12-18T15:39:39;29.2;27.4;20.2
62981;PMS5003;49075;53.988;27.678;2022-12-18T15:45:17;26.8;25.4;18.4
62981;PMS5003;49075;53.988;27.678;2022-12-18T15:49:39;26.8;25.4;18.4
62981;PMS5003;49075;53.988;27.678;2022-12-18T15:54:29;25.2;24.2;18.2
62981;PMS5003;49075;53.988;27.678;2022-12-18T16:00:17;26.8;25.2;18
62981;PMS5003;49075;53.988;27.678;2022-12-18T16:05:19;21.3;20.5;15.5
62981;PMS5003;49075;53.988;27.678;2022-12-18T16:09:55;21.3;20.5;15.5
62981;PMS5003;49075;53.988;27.678;2022-12-18T16:14:43;26;24.6;17.4
62981;PMS5003;49075;53.988;27.678;2022-12-18T16:20:03;24.4;24;17.8
62981;PMS5003;49075;53.988;27.678;2022-12-18T16:25:05;26.6;24.8;19.6
62981;PMS5003;49075;53.988;27.678;2022-12-18T16:29:41;26.6;25.6;17.8
62981;PMS5003;49075;53.988;27.678;2022-12-18T16:35:19;25.8;25.2;19.4
62981;PMS5003;49075;53.988;27.678;2022-12-18T16:40:10;25.8;25.2;19.4
62981;PMS5003;49075;53.988;27.678;2022-12-18T16:44:29;20.8;19.8;14
62981;PMS5003;49075;53.988;27.678;2022-12-18T16:50:17;23.4;22.6;17
62981;PMS5003;49075;53.988;27.678;2022-12-18T16:55:18;28.6;27.2;20
62981;PMS5003;49075;53.988;27.678;2022-12-18T16:59:43;28.6;27.2;20
62981;PMS5003;49075;53.988;27.678;2022-12-18T17:04:55;28.8;26.2;20
62981;PMS5003;49075;53.988;27.678;2022-12-18T17:10:03;29;28.8;19.5
62981;PMS5003;49075;53.988;27.678;2022-12-18T17:15:05;28.4;28.2;20.4
62981;PMS5003;49075;53.988;27.678;2022-12-18T17:19:41;32.8;31;21.2
62981;PMS5003;49075;53.988;27.678;2022-12-18T17:25:15;34.4;33.4;22.6
62981;PMS5003;49075;53.988;27.678;2022-12-18T17:29:51;34.4;33.4;22.6
62981;PMS5003;49075;53.988;27.678;2022-12-18T17:34:39;35;34;22.2
62981;PMS5003;49075;53.988;27.678;2022-12-18T17:40:17;38.4;36.6;25
62981;PMS5003;49075;53.988;27.678;2022-12-18T17:44:53;38.4;36.6;25
62981;PMS5003;49075;53.988;27.678;2022-12-18T17:49:53;41;37.8;25.8
62981;PMS5003;49075;53.988;27.678;2022-12-18T17:55:07;33;32.2;23.4
62981;PMS5003;49075;53.988;27.678;2022-12-18T18:00:05;34;33.2;22
62981;PMS5003;49075;53.988;27.678;2022-12-18T18:05:17;39.8;39;26.5
62981;PMS5003;49075;53.988;27.678;2022-12-18T18:09:29;39.8;39;26.5
62981;PMS5003;49075;53.988;27.678;2022-12-18T18:15:07;36.8;36;24.6
62981;PMS5003;49075;53.988;27.678;2022-12-18T18:19:53;35.6;34.4;23.6
62981;PMS5003;49075;53.988;27.678;2022-12-18T18:24:41;31.4;29.8;21.4
62981;PMS5003;49075;53.988;27.678;2022-12-18T18:30:17;38;36;24.2
62981;PMS5003;49075;53.988;27.678;2022-12-18T18:34:41;38;36;24.2
62981;PMS5003;49075;53.988;27.678;2022-12-18T18:40:07;38.6;36.8;23.6
62981;PMS5003;49075;53.988;27.678;2022-12-18T18:45:05;37;36.4;22.6
62981;PMS5003;49075;53.988;27.678;2022-12-18T18:50:05;37.6;36.2;24.4
62981;PMS5003;49075;53.988;27.678;2022-12-18T18:55:07;36;34.4;23
62981;PMS5003;49075;53.988;27.678;2022-12-18T18:59:41;32;30.2;20.4
62981;PMS5003;49075;53.988;27.678;2022-12-18T19:05:11;36.2;35;25.6
62981;PMS5003;49075;53.988;27.678;2022-12-18T19:09:53;36.2;35;25.6
62981;PMS5003;49075;53.988;27.678;2022-12-18T19:14:52;37.3;35.8;25.5
62981;PMS5003;49075;53.988;27.678;2022-12-18T19:20:15;30;29;20.8
62981;PMS5003;49075;53.988;27.678;2022-12-18T19:24:53;30;29;20.8
62981;PMS5003;49075;53.988;27.678;2022-12-18T19:29:29;29.6;28.4;20.8
62981;PMS5003;49075;53.988;27.678;2022-12-18T19:35:09;35.6;35;23
62981;PMS5003;49075;53.988;27.678;2022-12-18T19:40:17;33.8;31.6;21.8
62981;PMS5003;49075;53.988;27.678;2022-12-18T19:45:19;33.6;32.6;22.8
62981;PMS5003;49075;53.988;27.678;2022-12-18T19:50:19;29.4;28.6;20.2
62981;PMS5003;49075;53.988;27.678;2022-12-18T19:55:07;29.4;28.6;20.2
62981;PMS5003;49075;53.988;27.678;2022-12-18T19:59:53;37.2;35;25
62981;PMS5003;49075;53.988;27.678;2022-12-18T20:04:41;36.2;34;23.2
62981;PMS5003;49075;53.988;27.678;2022-12-18T20:10:19;30.5;28.5;18.5
62981;PMS5003;49075;53.988;27.678;2022-12-18T20:14:39;30.5;28.5;18.5
62981;PMS5003;49075;53.988;27.678;2022-12-18T20:19:29;30.6;28.4;20.8
62981;PMS5003;49075;53.988;27.678;2022-12-18T20:24:57;29.4;29.2;19.4
62981;PMS5003;49075;53.988;27.678;2022-12-18T20:30:05;30.2;28.6;19.8
62981;PMS5003;49075;53.988;27.678;2022-12-18T20:35:19;28.6;27.8;19
62981;PMS5003;49075;53.988;27.678;2022-12-18T20:39:29;28.6;27.8;19
62981;PMS5003;49075;53.988;27.678;2022-12-18T20:45:07;27.4;25.8;19.2
62981;PMS5003;49075;53.988;27.678;2022-12-18T20:49:53;23.8;22.2;16.6
62981;PMS5003;49075;53.988;27.678;2022-12-18T20:54:29;28;27.2;19.8
62981;PMS5003;49075;53.988;27.678;2022-12-18T21:00:17;28.6;27.6;19
62981;PMS5003;49075;53.988;27.678;2022-12-18T21:04:51;28.6;27.6;19
62981;PMS5003;49075;53.988;27.678;2022-12-18T21:09:53;28.6;27.8;20.4
62981;PMS5003;49075;53.988;27.678;2022-12-18T21:15:08;26.8;26.3;17
62981;PMS5003;49075;53.988;27.678;2022-12-18T21:20:03;28.4;27.4;19.8
62981;PMS5003;49075;53.988;27.678;2022-12-18T21:25:17;26.8;26.2;18.6
62981;PMS5003;49075;53.988;27.678;2022-12-18T21:29:29;26.8;26.2;18.6
62981;PMS5003;49075;53.988;27.678;2022-12-18T21:35:07;27.2;26;18.2
62981;PMS5003;49075;53.988;27.678;2022-12-18T21:39:39;31;29.2;20.6
62981;PMS5003;49075;53.988;27.678;2022-12-18T21:44:42;28.2;27;18
62981;PMS5003;49075;53.988;27.678;2022-12-18T21:50:05;29.2;27;18.4
62981;PMS5003;49075;53.988;27.678;2022-12-18T21:54:29;24;23.4;17.6
62981;PMS5003;49075;53.988;27.678;2022-12-18T21:59:49;25.6;24.8;18
62981;PMS5003;49075;53.988;27.678;2022-12-18T22:04:41;22.8;22.8;17.4
62981;PMS5003;49075;53.988;27.678;2022-12-18T22:10:01;27.2;26.2;19.8
62981;PMS5003;49075;53.988;27.678;2022-12-18T22:15:03;29.8;27.5;20.3
62981;PMS5003;49075;53.988;27.678;2022-12-18T22:19:39;28;25.6;19
62981;PMS5003;49075;53.988;27.678;2022-12-18T22:25:01;22.2;22.2;15.8
62981;PMS5003;49075;53.988;27.678;2022-12-18T22:29:51;25.6;25.4;16.6
62981;PMS5003;49075;53.988;27.678;2022-12-18T22:34:37;27.2;26.8;18.4
62981;PMS5003;49075;53.988;27.678;2022-12-18T22:40:09;27.8;27.2;19
62981;PMS5003;49075;53.988;27.678;2022-12-18T22:44:29;31;30;20.2
62981;PMS5003;49075;53.988;27.678;2022-12-18T22:49:37;24.8;24;18.4
62981;PMS5003;49075;53.988;27.678;2022-12-18T22:54:37;26.4;23.2;16.4
62981;PMS5003;49075;53.988;27.678;2022-12-18T22:59:57;27.4;26.6;19.6
62981;PMS5003;49075;53.988;27.678;2022-12-18T23:05:11;28.4;25.8;19
62981;PMS5003;49075;53.988;27.678;2022-12-18T23:09:37;28.4;25.8;19
62981;PMS5003;49075;53.988;27.678;2022-12-18T23:15:03;26.8;25;17.2
62981;PMS5003;49075;53.988;27.678;2022-12-18T23:19:59;30;26.5;18
62981;PMS5003;49075;53.988;27.678;2022-12-18T23:24:29;26.2;25.8;19.2
62981;PMS5003;49075;53.988;27.678;2022-12-18T23:30:15;29.6;28.4;20.6
62981;PMS5003;49075;53.988;27.678;2022-12-18T23:34:47;29.6;28.4;20.6
62981;PMS5003;49075;53.988;27.678;2022-12-18T23:39:47;26.2;25.2;18.2
62981;PMS5003;49075;53.988;27.678;2022-12-18T23:44:37;26.4;24.6;16.4
62981;PMS5003;49075;53.988;27.678;2022-12-18T23:49:51;30.6;28.4;21
62981;PMS5003;49075;53.988;27.678;2022-12-18T23:55:15;32.6;30.8;21.4
62981;PMS5003;49075;53.988;27.678;2022-12-18T23:59:29;32.6;30.8;21.4
